createdAt,value
2016-08-29T03:00:50.406Z,48.1
2016-08-29T03:01:15.993Z,47.52
2016-08-29T03:01:41.644Z,47.33
2016-08-29T03:02:07.247Z,47.13
2016-08-29T03:02:32.846Z,47.52
2016-08-29T03:02:58.354Z,47.72
2016-08-29T03:03:24.056Z,47.03
2016-08-29T03:03:49.746Z,47.23
2016-08-29T03:04:15.384Z,47.23
2016-08-29T03:04:40.998Z,47.03
2016-08-29T03:05:06.591Z,46.65
2016-08-29T03:05:32.225Z,46.84
2016-08-29T03:05:57.781Z,46.75
2016-08-29T03:06:23.345Z,46.84
2016-08-29T03:06:48.997Z,46.65
2016-08-29T03:07:14.579Z,46.84
2016-08-29T03:07:40.219Z,46.75
2016-08-29T03:08:05.799Z,46.75
2016-08-29T03:08:31.411Z,46.65
2016-08-29T03:08:57.020Z,46.65
2016-08-29T03:09:22.600Z,46.84
2016-08-29T03:09:48.173Z,47.03
2016-08-29T03:10:13.993Z,47.03
2016-08-29T03:10:39.558Z,47.13
2016-08-29T03:11:06.189Z,47.42
2016-08-29T03:11:31.765Z,46.94
2016-08-29T03:11:57.434Z,47.03
2016-08-29T03:12:23.040Z,47.23
2016-08-29T03:12:48.649Z,47.23
2016-08-29T03:13:14.217Z,47.52
2016-08-29T03:13:39.792Z,47.03
2016-08-29T03:14:05.445Z,47.23
2016-08-29T03:14:31.124Z,47.33
2016-08-29T03:14:56.714Z,47.62
2016-08-29T03:15:22.849Z,47.81
2016-08-29T03:15:48.653Z,47.52
2016-08-29T03:16:14.240Z,47.23
2016-08-29T03:16:39.808Z,47.23
2016-08-29T03:17:05.453Z,47.42
2016-08-29T03:17:31.006Z,47.52
2016-08-29T03:17:56.603Z,47.23
2016-08-29T03:18:22.263Z,47.42
2016-08-29T03:18:47.824Z,47.42
2016-08-29T03:19:13.414Z,47.52
2016-08-29T03:19:38.966Z,47.52
2016-08-29T03:20:04.535Z,47.42
2016-08-29T03:20:30.141Z,47.42
2016-08-29T03:20:55.790Z,47.03
2016-08-29T03:21:21.462Z,47.33
2016-08-29T03:21:47.025Z,47.03
2016-08-29T03:22:13.420Z,47.42
2016-08-29T03:22:38.992Z,47.62
2016-08-29T03:23:04.606Z,47.52
2016-08-29T03:23:30.225Z,47.72
2016-08-29T03:23:55.827Z,46.84
2016-08-29T03:24:21.504Z,46.84
2016-08-29T03:24:47.055Z,46.94
2016-08-29T03:25:12.730Z,46.94
2016-08-29T03:25:38.267Z,46.84
2016-08-29T03:26:36.564Z,47.42
2016-08-29T03:27:02.133Z,47.33
2016-08-29T03:27:27.731Z,47.72
2016-08-29T03:27:53.331Z,47.42
2016-08-29T03:28:18.897Z,47.62
2016-08-29T03:28:44.564Z,47.52
2016-08-29T03:29:10.135Z,47.23
2016-08-29T03:29:35.799Z,47.33
2016-08-29T03:30:01.351Z,47.72
2016-08-29T03:30:26.926Z,47.42
2016-08-29T03:30:52.474Z,47.52
2016-08-29T03:31:18.038Z,47.42
2016-08-29T03:31:43.830Z,47.33
2016-08-29T03:32:09.384Z,47.52
2016-08-29T03:32:34.951Z,47.52
2016-08-29T03:33:00.565Z,47.52
2016-08-29T03:33:26.150Z,47.23
2016-08-29T03:33:51.829Z,47.13
2016-08-29T03:34:17.555Z,47.23
2016-08-29T03:34:43.126Z,46.94
2016-08-29T03:35:08.688Z,47.42
2016-08-29T03:35:34.256Z,46.84
2016-08-29T03:35:59.817Z,47.03
2016-08-29T03:36:25.410Z,47.33
2016-08-29T03:36:50.978Z,47.23
2016-08-29T03:37:16.560Z,47.42
2016-08-29T03:37:42.166Z,46.94
2016-08-29T03:38:07.768Z,47.33
2016-08-29T03:38:33.386Z,47.72
2016-08-29T03:38:58.954Z,47.52
2016-08-29T03:39:24.554Z,47.52
2016-08-29T03:39:50.155Z,47.81
2016-08-29T03:40:15.783Z,47.42
2016-08-29T03:40:41.489Z,47.33
2016-08-29T03:41:06.995Z,47.03
2016-08-29T03:41:32.644Z,46.94
2016-08-29T03:41:58.252Z,47.13
2016-08-29T03:42:23.857Z,47.13
2016-08-29T03:42:49.584Z,46.84
2016-08-29T03:43:15.166Z,47.03
2016-08-29T03:43:40.774Z,46.94
2016-08-29T03:44:06.356Z,46.84
2016-08-29T03:44:31.944Z,46.84
2016-08-29T03:44:57.544Z,46.84
2016-08-29T03:45:23.643Z,46.94
2016-08-29T03:45:49.423Z,47.03
2016-08-29T03:46:14.985Z,47.03
2016-08-29T03:46:40.596Z,46.55
2016-08-29T03:47:06.178Z,46.94
2016-08-29T03:47:31.872Z,47.13
2016-08-29T03:47:57.425Z,47.42
2016-08-29T03:48:23.722Z,47.13
2016-08-29T03:48:49.441Z,47.03
2016-08-29T03:49:15.109Z,47.33
2016-08-29T03:49:40.796Z,47.13
2016-08-29T03:50:06.378Z,47.03
2016-08-29T03:50:31.937Z,46.84
2016-08-29T03:50:57.481Z,46.75
2016-08-29T03:51:23.095Z,46.84
2016-08-29T03:51:48.709Z,47.13
2016-08-29T03:52:14.272Z,47.13
2016-08-29T03:52:39.842Z,47.23
2016-08-29T03:53:05.405Z,46.75
2016-08-29T03:53:31.055Z,46.55
2016-08-29T03:53:56.641Z,46.55
2016-08-29T03:54:49.738Z,46.55
2016-08-29T03:55:15.324Z,46.26
2016-08-29T03:55:40.956Z,46.55
2016-08-29T03:56:06.576Z,46.84
2016-08-29T03:56:32.158Z,46.75
2016-08-29T03:56:57.740Z,46.65
2016-08-29T03:57:23.297Z,46.75
2016-08-29T03:57:48.894Z,46.55
2016-08-29T03:58:14.648Z,46.65
2016-08-29T03:58:40.266Z,46.84
2016-08-29T03:59:05.964Z,46.65
2016-08-29T03:59:31.522Z,46.65
2016-08-29T03:59:57.163Z,46.65
2016-08-29T04:00:22.725Z,46.84
2016-08-29T04:00:48.278Z,46.55
2016-08-29T04:01:13.861Z,46.45
2016-08-29T04:01:39.410Z,46.84
2016-08-29T04:02:05.066Z,46.84
2016-08-29T04:02:30.619Z,46.84
2016-08-29T04:02:56.267Z,46.94
2016-08-29T04:03:21.866Z,46.84
2016-08-29T04:03:47.434Z,46.75
2016-08-29T04:04:13.145Z,46.65
2016-08-29T04:04:38.694Z,46.84
2016-08-29T04:05:04.261Z,46.84
2016-08-29T04:05:30.044Z,46.94
2016-08-29T04:05:55.601Z,46.84
2016-08-29T04:06:21.250Z,47.03
2016-08-29T04:06:46.798Z,46.75
2016-08-29T04:07:12.371Z,47.03
2016-08-29T04:07:38.083Z,46.84
2016-08-29T04:08:03.616Z,46.94
2016-08-29T04:08:29.301Z,46.75
2016-08-29T04:08:54.964Z,46.75
2016-08-29T04:09:20.420Z,47.03
2016-08-29T04:09:46.060Z,47.23
2016-08-29T04:10:11.639Z,47.23
2016-08-29T04:10:37.185Z,47.23
2016-08-29T04:11:02.759Z,47.33
2016-08-29T04:11:28.357Z,47.33
2016-08-29T04:11:53.961Z,47.23
2016-08-29T04:12:19.675Z,47.03
2016-08-29T04:12:45.293Z,47.23
2016-08-29T04:13:10.855Z,46.94
2016-08-29T04:13:36.506Z,46.84
2016-08-29T04:14:02.192Z,46.84
2016-08-29T04:14:27.802Z,46.55
2016-08-29T04:14:53.426Z,46.84
2016-08-29T04:15:19.307Z,46.75
2016-08-29T04:15:44.870Z,46.94
2016-08-29T04:16:10.586Z,46.94
2016-08-29T04:16:36.209Z,47.13
2016-08-29T04:17:01.766Z,47.23
2016-08-29T04:17:27.435Z,47.03
2016-08-29T04:17:52.985Z,47.03
2016-08-29T04:18:18.536Z,47.23
2016-08-29T04:18:44.139Z,47.03
2016-08-29T04:19:09.693Z,47.42
2016-08-29T04:19:35.355Z,47.33
2016-08-29T04:20:00.981Z,47.23
2016-08-29T04:20:26.657Z,47.13
2016-08-29T04:20:52.448Z,46.94
2016-08-29T04:21:18.011Z,46.94
2016-08-29T04:21:43.574Z,47.23
2016-08-29T04:22:09.266Z,47.62
2016-08-29T04:22:34.841Z,47.62
2016-08-29T04:23:00.450Z,47.33
2016-08-29T04:23:26.005Z,47.33
2016-08-29T04:23:51.564Z,47.03
2016-08-29T04:24:17.167Z,47.23
2016-08-29T04:24:42.748Z,47.33
2016-08-29T04:25:08.351Z,47.42
2016-08-29T04:25:33.975Z,47.52
2016-08-29T04:25:59.599Z,47.33
2016-08-29T04:26:25.238Z,47.03
2016-08-29T04:26:50.795Z,47.03
2016-08-29T04:27:16.467Z,47.42
2016-08-29T04:27:42.047Z,47.13
2016-08-29T04:28:07.693Z,47.23
2016-08-29T04:28:33.275Z,47.52
2016-08-29T04:28:58.803Z,47.52
2016-08-29T04:29:24.504Z,47.42
2016-08-29T04:29:50.081Z,47.52
2016-08-29T04:30:15.686Z,47.62
2016-08-29T04:30:41.766Z,47.33
2016-08-29T04:31:07.414Z,46.94
2016-08-29T04:31:32.975Z,46.94
2016-08-29T04:31:58.558Z,47.13
2016-08-29T04:32:24.150Z,47.33
2016-08-29T04:32:49.782Z,46.84
2016-08-29T04:33:15.392Z,47.42
2016-08-29T04:33:40.973Z,47.62
2016-08-29T04:34:06.567Z,47.23
2016-08-29T04:34:32.135Z,47.62
2016-08-29T04:34:57.789Z,47.42
2016-08-29T04:35:23.354Z,47.03
2016-08-29T04:35:48.907Z,47.72
2016-08-29T04:36:14.571Z,47.23
2016-08-29T04:36:40.164Z,47.23
2016-08-29T04:37:05.795Z,47.52
2016-08-29T04:37:31.390Z,47.33
2016-08-29T04:37:56.960Z,47.23
2016-08-29T04:38:22.504Z,47.33
2016-08-29T04:38:48.092Z,47.42
2016-08-29T04:39:13.661Z,47.42
2016-08-29T04:39:39.247Z,47.23
2016-08-29T04:40:04.815Z,47.81
2016-08-29T04:40:30.381Z,47.52
2016-08-29T04:40:55.937Z,47.42
2016-08-29T04:41:21.616Z,47.03
2016-08-29T04:41:47.156Z,47.62
2016-08-29T04:42:12.727Z,47.23
2016-08-29T04:42:38.371Z,47.33
2016-08-29T04:43:03.943Z,47.42
2016-08-29T04:43:29.528Z,47.52
2016-08-29T04:43:55.089Z,47.03
2016-08-29T04:44:20.788Z,47.23
2016-08-29T04:45:24.027Z,47.33
2016-08-29T04:45:49.637Z,47.03
2016-08-29T04:46:15.211Z,47.23
2016-08-29T04:46:40.769Z,47.23
2016-08-29T04:47:06.328Z,47.23
2016-08-29T04:47:31.910Z,47.33
2016-08-29T04:47:57.689Z,46.75
2016-08-29T04:48:50.747Z,47.13
2016-08-29T04:50:04.145Z,46.94
2016-08-29T04:50:29.754Z,47.13
2016-08-29T04:50:55.309Z,47.13
2016-08-29T04:51:21.086Z,47.13
2016-08-29T04:51:46.753Z,47.03
2016-08-29T04:52:12.323Z,46.65
2016-08-29T04:52:37.987Z,46.55
2016-08-29T04:53:03.664Z,46.84
2016-08-29T04:54:05.847Z,47.03
2016-08-29T04:54:31.418Z,47.13
2016-08-29T04:54:57.105Z,47.03
2016-08-29T04:55:22.740Z,47.03
2016-08-29T04:55:48.307Z,47.13
2016-08-29T04:56:14.075Z,47.03
2016-08-29T04:56:39.683Z,47.13
2016-08-29T04:57:05.877Z,47.23
2016-08-29T04:57:31.437Z,47.13
2016-08-29T04:57:57.719Z,47.13
2016-08-29T04:58:23.297Z,47.03
2016-08-29T04:58:48.983Z,47.23
2016-08-29T04:59:15.078Z,46.94
2016-08-29T04:59:40.717Z,47.03
2016-08-29T05:00:06.833Z,46.94
2016-08-29T05:00:32.398Z,47.42
2016-08-29T05:00:58.026Z,47.42
2016-08-29T05:01:24.201Z,47.23
2016-08-29T05:01:49.790Z,46.94
2016-08-29T05:02:15.997Z,47.03
2016-08-29T05:02:41.566Z,47.33
2016-08-29T05:03:07.789Z,47.33
2016-08-29T05:03:33.409Z,47.52
2016-08-29T05:03:59.018Z,47.42
2016-08-29T05:04:25.101Z,47.42
2016-08-29T05:04:50.678Z,47.42
2016-08-29T05:05:16.968Z,47.33
2016-08-29T05:05:42.519Z,47.23
2016-08-29T05:06:08.202Z,47.03
2016-08-29T05:06:34.151Z,47.03
2016-08-29T05:06:59.743Z,47.23
2016-08-29T05:07:26.023Z,47.13
2016-08-29T05:07:51.604Z,47.52
2016-08-29T05:08:17.890Z,47.42
2016-08-29T05:08:43.477Z,47.33
2016-08-29T05:09:09.229Z,47.42
2016-08-29T05:09:35.232Z,47.03
2016-08-29T05:10:00.914Z,47.33
2016-08-29T05:10:27.034Z,47.42
2016-08-29T05:10:52.597Z,47.03
2016-08-29T05:11:18.272Z,47.42
2016-08-29T05:11:44.395Z,47.03
2016-08-29T05:12:10.064Z,47.23
2016-08-29T05:12:36.180Z,47.42
2016-08-29T05:13:01.730Z,47.33
2016-08-29T05:13:27.934Z,47.03
2016-08-29T05:13:53.487Z,47.13
2016-08-29T05:14:19.102Z,47.13
2016-08-29T05:14:45.291Z,47.13
2016-08-29T05:15:11.015Z,47.03
2016-08-29T05:15:37.142Z,47.23
2016-08-29T05:16:02.698Z,46.94
2016-08-29T05:16:28.297Z,46.84
2016-08-29T05:16:54.510Z,47.13
2016-08-29T05:17:20.127Z,47.13
2016-08-29T05:17:46.250Z,47.02
2016-08-29T05:18:11.810Z,46.94
2016-08-29T05:18:38.070Z,46.94
2016-08-29T05:19:03.746Z,46.84
2016-08-29T05:19:29.416Z,46.84
2016-08-29T05:19:55.461Z,46.84
2016-08-29T05:20:21.023Z,47.13
2016-08-29T05:20:47.194Z,46.84
2016-08-29T05:21:12.756Z,46.94
2016-08-29T05:21:38.556Z,46.94
2016-08-29T05:22:04.495Z,46.65
2016-08-29T05:22:30.079Z,47.03
2016-08-29T05:22:56.376Z,47.13
2016-08-29T05:23:21.938Z,46.65
2016-08-29T05:23:48.138Z,46.84
2016-08-29T05:24:13.717Z,46.72
2016-08-29T05:24:39.293Z,46.94
2016-08-29T05:25:05.465Z,47.03
2016-08-29T05:25:31.457Z,46.65
2016-08-29T05:26:29.548Z,47.03
2016-08-29T05:26:55.142Z,47.13
2016-08-29T05:27:20.663Z,47.23
2016-08-29T05:27:46.308Z,47.13
2016-08-29T05:28:11.877Z,47.03
2016-08-29T05:28:37.577Z,47.23
2016-08-29T05:29:03.230Z,47.42
2016-08-29T05:29:28.810Z,47.03
2016-08-29T05:29:54.502Z,47.42
2016-08-29T05:30:20.093Z,47.23
2016-08-29T05:30:45.684Z,46.84
2016-08-29T05:31:11.226Z,46.84
2016-08-29T05:31:36.786Z,46.65
2016-08-29T05:32:02.378Z,47.13
2016-08-29T05:32:27.933Z,47.03
2016-08-29T05:33:36.306Z,46.94
2016-08-29T05:34:01.927Z,46.75
2016-08-29T05:34:27.585Z,46.84
2016-08-29T05:34:53.152Z,46.84
2016-08-29T05:35:18.802Z,46.84
2016-08-29T05:35:44.464Z,46.55
2016-08-29T05:36:10.014Z,46.75
2016-08-29T05:36:35.600Z,46.84
2016-08-29T05:37:01.187Z,46.94
2016-08-29T05:37:26.724Z,46.65
2016-08-29T05:37:52.404Z,46.84
2016-08-29T05:38:18.083Z,46.65
2016-08-29T05:38:43.662Z,46.65
2016-08-29T05:39:09.292Z,46.75
2016-08-29T05:39:34.844Z,46.84
2016-08-29T05:40:00.517Z,46.65
2016-08-29T05:40:26.155Z,46.75
2016-08-29T05:40:51.770Z,46.75
2016-08-29T05:41:17.381Z,46.94
2016-08-29T05:41:42.938Z,46.94
2016-08-29T05:42:08.518Z,46.75
2016-08-29T05:42:34.056Z,46.55
2016-08-29T05:42:59.689Z,46.84
2016-08-29T05:43:25.233Z,46.55
2016-08-29T05:43:50.838Z,46.94
2016-08-29T05:44:16.452Z,46.75
2016-08-29T05:44:42.022Z,46.55
2016-08-29T05:45:07.693Z,47.03
2016-08-29T05:45:33.274Z,46.75
2016-08-29T05:45:58.894Z,46.55
2016-08-29T05:46:24.489Z,46.55
2016-08-29T05:46:50.029Z,46.75
2016-08-29T05:47:15.589Z,46.75
2016-08-29T05:47:41.153Z,46.94
2016-08-29T05:48:06.880Z,46.82
2016-08-29T05:48:32.465Z,46.84
2016-08-29T05:48:58.048Z,46.84
2016-08-29T05:49:23.742Z,46.55
2016-08-29T05:49:49.312Z,46.45
2016-08-29T05:50:14.949Z,46.65
2016-08-29T05:50:40.520Z,46.65
2016-08-29T05:51:06.079Z,46.92
2016-08-29T05:51:31.644Z,46.75
2016-08-29T05:51:57.190Z,46.84
2016-08-29T05:52:22.864Z,46.84
2016-08-29T05:52:48.461Z,46.84
2016-08-29T05:53:13.996Z,46.65
2016-08-29T05:53:39.722Z,46.84
2016-08-29T05:54:32.836Z,46.75
2016-08-29T05:54:58.399Z,46.75
2016-08-29T05:55:24.162Z,46.84
2016-08-29T05:55:49.825Z,47.13
2016-08-29T05:56:15.386Z,46.94
2016-08-29T05:56:41.030Z,46.84
2016-08-29T05:57:06.599Z,46.36
2016-08-29T05:57:32.243Z,46.72
2016-08-29T05:57:57.894Z,46.62
2016-08-29T05:58:23.466Z,46.75
2016-08-29T05:58:49.093Z,46.84
2016-08-29T05:59:14.828Z,46.92
2016-08-29T05:59:40.412Z,46.65
2016-08-29T06:00:06.005Z,46.45
2016-08-29T06:00:31.671Z,46.45
2016-08-29T06:01:28.888Z,46.75
2016-08-29T06:01:54.435Z,47.03
2016-08-29T06:02:20.075Z,46.43
2016-08-29T06:02:45.629Z,46.53
2016-08-29T06:03:11.197Z,46.82
2016-08-29T06:03:37.133Z,46.94
2016-08-29T06:04:02.684Z,46.92
2016-08-29T06:04:28.970Z,46.72
2016-08-29T06:04:54.531Z,47.11
2016-08-29T06:05:20.845Z,46.45
2016-08-29T06:05:46.560Z,46.75
2016-08-29T06:06:12.124Z,47.03
2016-08-29T06:06:38.104Z,46.84
2016-08-29T06:07:03.748Z,46.72
2016-08-29T06:07:29.905Z,46.82
2016-08-29T06:07:55.537Z,46.53
2016-08-29T06:08:21.113Z,46.82
2016-08-29T06:08:47.217Z,46.72
2016-08-29T06:09:12.818Z,46.84
2016-08-29T06:09:39.083Z,47.11
2016-08-29T06:10:04.668Z,46.92
2016-08-29T06:10:30.835Z,46.75
2016-08-29T06:10:56.417Z,46.72
2016-08-29T06:11:22.064Z,46.72
2016-08-29T06:11:48.175Z,46.55
2016-08-29T06:12:13.721Z,47.02
2016-08-29T06:12:40.004Z,46.72
2016-08-29T06:13:05.546Z,46.75
2016-08-29T06:13:31.131Z,46.82
2016-08-29T06:13:57.322Z,46.43
2016-08-29T06:14:22.940Z,46.82
2016-08-29T06:14:49.158Z,46.72
2016-08-29T06:15:14.722Z,46.82
2016-08-29T06:15:40.924Z,46.62
2016-08-29T06:16:06.489Z,46.92
2016-08-29T06:16:32.040Z,46.82
2016-08-29T06:16:58.276Z,46.62
2016-08-29T06:17:23.849Z,46.82
2016-08-29T06:17:50.082Z,46.72
2016-08-29T06:18:15.705Z,46.72
2016-08-29T06:18:41.238Z,46.72
2016-08-29T06:19:07.485Z,46.53
2016-08-29T06:19:33.058Z,46.72
2016-08-29T08:29:29.881Z,48.85
2016-08-29T08:29:55.544Z,48.66
2016-08-29T08:30:21.161Z,48.66
2016-08-29T08:30:46.745Z,48.66
2016-08-29T08:31:12.367Z,48.76
2016-08-29T08:31:37.959Z,48.85
2016-08-29T08:32:03.532Z,48.76
2016-08-29T08:32:29.092Z,48.66
2016-08-29T08:32:54.656Z,48.76
2016-08-29T08:33:20.230Z,48.85
2016-08-29T08:33:45.922Z,48.85
2016-08-29T08:34:11.507Z,48.66
2016-08-29T08:34:37.083Z,48.66
2016-08-29T08:35:02.635Z,48.85
2016-08-29T08:35:28.894Z,48.76
2016-08-29T08:35:54.466Z,48.85
2016-08-29T08:36:20.060Z,48.66
2016-08-29T08:36:45.652Z,48.76
2016-08-29T08:37:11.224Z,48.66
2016-08-29T08:37:36.763Z,48.66
2016-08-29T08:38:02.363Z,48.66
2016-08-29T08:38:27.932Z,48.85
2016-08-29T08:38:53.573Z,48.85
2016-08-29T08:39:19.147Z,48.66
2016-08-29T08:39:44.696Z,48.66
2016-08-29T08:40:10.264Z,48.76
2016-08-29T08:40:35.910Z,48.66
2016-08-29T08:41:01.476Z,48.66
2016-08-29T08:41:27.018Z,48.76
2016-08-29T08:41:52.597Z,48.66
2016-08-29T08:42:18.127Z,48.57
2016-08-29T08:42:43.723Z,48.76
2016-08-29T08:43:09.319Z,48.57
2016-08-29T08:43:34.864Z,48.57
2016-08-29T08:44:00.438Z,48.66
2016-08-29T08:44:26.013Z,48.76
2016-08-29T08:44:51.596Z,48.47
2016-08-29T08:45:17.171Z,48.57
2016-08-29T08:45:42.743Z,48.57
2016-08-29T08:46:08.318Z,48.66
2016-08-29T08:46:33.864Z,48.76
2016-08-29T08:46:59.399Z,48.76
2016-08-29T08:47:24.931Z,48.57
2016-08-29T08:47:50.472Z,48.57
2016-08-29T08:48:16.007Z,48.66
2016-08-29T08:48:41.603Z,48.57
2016-08-29T08:49:07.138Z,48.57
2016-08-29T08:49:32.670Z,48.66
2016-08-29T08:49:58.235Z,48.66
2016-08-29T08:50:23.767Z,48.66
2016-08-29T08:50:49.453Z,48.66
2016-08-29T08:51:14.977Z,48.85
2016-08-29T08:51:40.631Z,48.66
2016-08-29T08:52:06.189Z,48.76
2016-08-29T08:52:31.857Z,48.66
2016-08-29T08:52:57.405Z,48.57
2016-08-29T08:53:22.968Z,48.66
2016-08-29T08:53:48.678Z,48.66
2016-08-29T08:54:14.216Z,48.57
2016-08-29T08:54:39.758Z,48.76
2016-08-29T08:55:05.299Z,48.47
2016-08-29T08:55:31.473Z,48.47
2016-08-29T08:55:57.027Z,48.47
2016-08-29T08:56:22.560Z,48.66
2016-08-29T08:56:48.091Z,48.66
2016-08-29T08:57:13.631Z,48.57
2016-08-29T08:57:39.235Z,48.57
2016-08-29T08:58:04.761Z,48.37
2016-08-29T08:58:30.334Z,48.57
2016-08-29T08:58:55.962Z,48.57
2016-08-29T08:59:21.511Z,48.47
2016-08-29T08:59:47.063Z,48.57
2016-08-29T09:00:12.611Z,48.57
2016-08-29T09:00:38.163Z,48.57
2016-08-29T09:01:04.190Z,48.66
2016-08-29T09:01:29.757Z,48.76
2016-08-29T09:01:55.352Z,48.47
2016-08-29T09:02:20.904Z,48.85
2016-08-29T09:02:46.502Z,48.57
2016-08-29T09:03:12.071Z,48.47
2016-08-29T09:03:37.617Z,48.37
2016-08-29T09:04:03.177Z,48.66
2016-08-29T09:04:28.732Z,48.76
2016-08-29T09:04:54.277Z,48.66
2016-08-29T09:05:20.102Z,48.57
2016-08-29T09:05:45.659Z,48.47
2016-08-29T09:06:11.315Z,48.76
2016-08-29T09:06:36.888Z,48.37
2016-08-29T09:07:02.444Z,48.66
2016-08-29T09:07:28.005Z,48.85
2016-08-29T09:07:53.572Z,48.66
2016-08-29T09:08:19.125Z,48.76
2016-08-29T09:08:44.718Z,48.66
2016-08-29T09:09:10.317Z,48.57
2016-08-29T09:09:35.916Z,48.85
2016-08-29T09:10:01.475Z,48.76
2016-08-29T09:10:27.098Z,48.66
2016-08-29T09:10:52.697Z,48.85
2016-08-29T09:11:18.269Z,48.76
2016-08-29T09:11:43.824Z,48.57
2016-08-29T09:12:09.381Z,48.76
2016-08-29T09:12:34.934Z,48.76
2016-08-29T09:13:00.471Z,48.66
2016-08-29T09:13:26.030Z,48.76
2016-08-29T09:13:51.596Z,48.85
2016-08-29T09:14:17.165Z,48.66
2016-08-29T09:14:42.770Z,48.95
2016-08-29T09:15:09.059Z,48.76
2016-08-29T09:15:34.619Z,48.76
2016-08-29T09:16:00.177Z,49.05
2016-08-29T09:16:25.729Z,48.95
2016-08-29T09:16:51.308Z,48.85
2016-08-29T09:17:16.980Z,48.95
2016-08-29T09:17:42.535Z,48.66
2016-08-29T09:18:08.112Z,49.05
2016-08-29T09:18:34.629Z,48.76
2016-08-29T09:19:00.192Z,48.66
2016-08-29T09:19:25.745Z,48.85
2016-08-29T09:19:51.327Z,48.66
2016-08-29T09:20:17.230Z,48.76
2016-08-29T09:20:42.807Z,48.66
2016-08-29T09:21:08.360Z,48.57
2016-08-29T09:22:01.343Z,48.47
2016-08-29T09:22:26.918Z,48.95
2016-08-29T09:22:52.514Z,48.85
2016-08-29T09:23:18.138Z,48.85
2016-08-29T09:23:43.700Z,48.95
2016-08-29T09:24:09.269Z,48.57
2016-08-29T09:24:34.903Z,48.85
2016-08-29T09:25:00.486Z,48.76
2016-08-29T09:25:26.197Z,48.66
2016-08-29T09:25:51.770Z,48.76
2016-08-29T09:26:17.352Z,48.85
2016-08-29T09:26:43.011Z,48.85
2016-08-29T09:27:08.563Z,48.95
2016-08-29T09:27:34.122Z,48.85
2016-08-29T09:27:59.685Z,48.76
2016-08-29T09:28:25.234Z,48.85
2016-08-29T09:28:50.807Z,48.85
2016-08-29T09:29:16.368Z,48.85
2016-08-29T09:29:41.929Z,48.85
2016-08-29T09:30:07.502Z,48.85
2016-08-29T09:30:33.268Z,48.47
2016-08-29T09:30:58.830Z,48.85
2016-08-29T09:31:24.390Z,48.76
2016-08-29T09:31:49.946Z,48.47
2016-08-29T09:32:15.507Z,48.76
2016-08-29T09:32:41.073Z,48.95
2016-08-29T09:33:06.645Z,48.85
2016-08-29T09:33:32.305Z,48.95
2016-08-29T09:33:57.876Z,48.95
2016-08-29T09:34:23.446Z,48.85
2016-08-29T09:34:48.997Z,48.95
2016-08-29T09:35:14.692Z,48.66
2016-08-29T09:35:40.258Z,48.85
2016-08-29T09:36:05.815Z,48.85
2016-08-29T09:36:31.385Z,48.95
2016-08-29T09:36:56.964Z,48.85
2016-08-29T09:37:22.558Z,48.85
2016-08-29T09:37:48.117Z,48.57
2016-08-29T09:38:13.686Z,48.85
2016-08-29T09:38:39.272Z,48.76
2016-08-29T09:39:04.830Z,48.95
2016-08-29T09:39:30.378Z,48.85
2016-08-29T09:39:55.945Z,48.76
2016-08-29T09:40:21.506Z,48.85
2016-08-29T09:40:47.068Z,48.85
2016-08-29T09:41:12.681Z,48.85
2016-08-29T09:41:38.258Z,48.76
2016-08-29T09:42:03.838Z,48.76
2016-08-29T09:42:29.397Z,48.85
2016-08-29T09:42:55.031Z,48.66
2016-08-29T09:43:20.590Z,48.85
2016-08-29T09:43:46.163Z,48.85
2016-08-29T09:44:11.696Z,48.95
2016-08-29T09:44:37.349Z,48.95
2016-08-29T09:45:02.899Z,48.76
2016-08-29T09:45:28.523Z,48.76
2016-08-29T09:45:54.085Z,48.85
2016-08-29T09:46:19.662Z,48.85
2016-08-29T09:46:45.336Z,48.85
2016-08-29T09:47:11.047Z,48.85
2016-08-29T09:47:36.607Z,48.76
2016-08-29T09:48:02.159Z,48.76
2016-08-29T09:48:27.734Z,48.85
2016-08-29T09:48:53.312Z,48.76
2016-08-29T09:49:18.901Z,48.95
2016-08-29T09:49:44.447Z,48.85
2016-08-29T09:50:10.405Z,48.76
2016-08-29T09:50:35.960Z,48.76
2016-08-29T09:51:01.533Z,48.76
2016-08-29T09:51:27.068Z,48.85
2016-08-29T09:51:52.677Z,48.76
2016-08-29T09:52:18.237Z,48.85
2016-08-29T09:52:43.776Z,48.76
2016-08-29T09:53:09.352Z,48.85
2016-08-29T09:53:34.900Z,48.95
2016-08-29T09:54:00.456Z,48.85
2016-08-29T09:54:26.031Z,48.66
2016-08-29T09:54:51.547Z,48.85
2016-08-29T09:55:17.147Z,48.85
2016-08-29T09:55:42.678Z,48.66
2016-08-29T09:56:08.238Z,48.85
2016-08-29T09:56:33.758Z,48.76
2016-08-29T09:56:59.304Z,48.76
2016-08-29T09:57:24.995Z,48.95
2016-08-29T09:57:50.557Z,48.95
2016-08-29T09:58:16.101Z,48.95
2016-08-29T09:58:41.691Z,48.85
2016-08-29T09:59:07.271Z,48.57
2016-08-29T09:59:32.824Z,48.95
2016-08-29T09:59:58.394Z,48.66
2016-08-29T10:00:23.936Z,48.95
2016-08-29T10:00:49.485Z,48.76
2016-08-29T10:01:15.007Z,49.05
2016-08-29T10:01:40.563Z,48.76
2016-08-29T10:02:06.099Z,49.05
2016-08-29T10:02:31.622Z,48.95
2016-08-29T10:02:57.177Z,48.95
2016-08-29T10:03:22.729Z,48.85
2016-08-29T10:03:48.300Z,48.85
2016-08-29T10:04:13.839Z,48.85
2016-08-29T10:04:39.400Z,48.85
2016-08-29T10:05:04.982Z,48.85
2016-08-29T10:05:30.526Z,48.85
2016-08-29T10:05:56.094Z,48.66
2016-08-29T10:06:21.648Z,48.76
2016-08-29T10:06:47.209Z,48.76
2016-08-29T10:07:12.772Z,48.95
2016-08-29T10:07:38.330Z,48.76
2016-08-29T10:08:03.881Z,48.85
2016-08-29T10:08:29.432Z,48.85
2016-08-29T10:08:55.004Z,49.05
2016-08-29T10:09:21.480Z,48.85
2016-08-29T10:09:47.043Z,48.66
2016-08-29T10:10:12.624Z,48.76
2016-08-29T10:10:38.176Z,48.66
2016-08-29T10:11:03.733Z,48.76
2016-08-29T10:11:29.374Z,48.76
2016-08-29T10:11:55.008Z,48.95
2016-08-29T10:12:20.580Z,48.85
2016-08-29T10:12:46.156Z,49.15
2016-08-29T10:13:11.713Z,48.66
2016-08-29T10:13:37.258Z,48.85
2016-08-29T10:14:02.819Z,48.85
2016-08-29T10:14:28.376Z,48.95
2016-08-29T10:14:53.934Z,48.95
2016-08-29T10:15:22.641Z,48.85
2016-08-29T10:15:48.285Z,48.85
2016-08-29T10:16:51.531Z,48.76
2016-08-29T10:17:17.085Z,48.57
2016-08-29T10:18:25.705Z,48.47
2016-08-29T10:18:51.283Z,48.66
2016-08-29T10:19:16.854Z,48.57
2016-08-29T10:21:23.928Z,48.66
2016-08-29T10:21:49.489Z,48.47
2016-08-29T10:22:15.041Z,48.47
2016-08-29T10:22:40.682Z,48.47
2016-08-29T10:23:06.259Z,48.57
2016-08-29T10:23:31.841Z,48.47
2016-08-29T10:23:57.424Z,48.85
2016-08-29T10:24:23.001Z,48.76
2016-08-29T10:24:48.555Z,48.76
2016-08-29T10:25:14.131Z,48.47
2016-08-29T10:25:39.822Z,48.57
2016-08-29T10:26:05.411Z,48.85
2016-08-29T10:26:30.982Z,48.95
2016-08-29T10:26:56.599Z,48.76
2016-08-29T10:27:22.158Z,48.85
2016-08-29T10:27:47.706Z,48.76
2016-08-29T10:28:13.262Z,48.76
2016-08-29T10:28:38.830Z,48.66
2016-08-29T10:29:04.364Z,48.76
2016-08-29T10:29:29.973Z,48.85
2016-08-29T10:29:55.525Z,48.95
2016-08-29T10:30:21.094Z,48.76
2016-08-29T10:30:46.645Z,48.66
2016-08-29T10:31:12.224Z,48.66
2016-08-29T10:31:37.778Z,48.85
2016-08-29T10:32:03.357Z,48.85
2016-08-29T10:32:28.937Z,48.85
2016-08-29T10:32:54.516Z,48.57
2016-08-29T10:33:20.053Z,48.76
2016-08-29T10:33:45.625Z,48.76
2016-08-29T10:34:11.183Z,48.76
2016-08-29T10:34:36.744Z,48.85
2016-08-29T10:35:02.334Z,48.76
2016-08-29T10:35:27.994Z,48.76
2016-08-29T10:35:53.572Z,48.76
2016-08-29T10:36:19.125Z,48.95
2016-08-29T10:36:44.687Z,48.76
2016-08-29T10:37:10.317Z,48.85
2016-08-29T10:37:35.867Z,48.85
2016-08-29T10:38:01.427Z,49.05
2016-08-29T10:38:27.008Z,48.76
2016-08-29T10:38:52.595Z,48.66
2016-08-29T10:39:18.156Z,48.76
2016-08-29T10:39:43.726Z,48.76
2016-08-29T10:40:09.276Z,48.76
2016-08-29T10:40:34.926Z,48.76
2016-08-29T10:41:00.500Z,48.95
2016-08-29T10:41:26.084Z,48.95
2016-08-29T10:41:51.656Z,48.95
2016-08-29T10:42:17.226Z,48.85
2016-08-29T10:42:42.785Z,48.85
2016-08-29T10:43:08.353Z,48.85
2016-08-29T10:43:33.936Z,48.85
2016-08-29T10:43:59.504Z,48.76
2016-08-29T10:44:25.143Z,48.76
2016-08-29T10:44:50.690Z,48.66
2016-08-29T10:45:16.325Z,48.95
2016-08-29T10:45:41.905Z,48.85
2016-08-29T10:46:07.482Z,48.95
2016-08-29T10:46:33.034Z,48.85
2016-08-29T10:46:58.580Z,48.85
2016-08-29T10:47:24.129Z,48.76
2016-08-29T10:47:49.672Z,48.66
2016-08-29T10:48:15.237Z,48.85
2016-08-29T10:48:40.799Z,48.85
2016-08-29T10:49:06.416Z,48.85
2016-08-29T10:49:31.977Z,48.85